sensor_id;sensor_type;location;lat;lon;timestamp;P1;durP1;ratioP1;P2;durP2;ratioP2
24173;SDS011;12324;48.146;11.502;2022-07-06T00:01:48;2.88;;;1.88;;
24173;SDS011;12324;48.146;11.502;2022-07-06T00:04:17;2.78;;;1.98;;
24173;SDS011;12324;48.146;11.502;2022-07-06T00:06:45;2.92;;;2.03;;
24173;SDS011;12324;48.146;11.502;2022-07-06T00:09:11;3.40;;;2.22;;
24173;SDS011;12324;48.146;11.502;2022-07-06T00:11:38;2.78;;;1.98;;
24173;SDS011;12324;48.146;11.502;2022-07-06T00:14:05;2.50;;;1.95;;
24173;SDS011;12324;48.146;11.502;2022-07-06T00:16:32;4.03;;;2.17;;
24173;SDS011;12324;48.146;11.502;2022-07-06T00:18:59;3.92;;;1.92;;
24173;SDS011;12324;48.146;11.502;2022-07-06T00:21:26;3.83;;;2.30;;
24173;SDS011;12324;48.146;11.502;2022-07-06T00:23:53;4.13;;;2.08;;
24173;SDS011;12324;48.146;11.502;2022-07-06T00:26:19;3.03;;;1.80;;
24173;SDS011;12324;48.146;11.502;2022-07-06T00:28:46;3.85;;;2.17;;
24173;SDS011;12324;48.146;11.502;2022-07-06T00:31:13;3.08;;;1.90;;
24173;SDS011;12324;48.146;11.502;2022-07-06T00:33:40;4.88;;;2.10;;
24173;SDS011;12324;48.146;11.502;2022-07-06T00:36:06;2.95;;;2.00;;
24173;SDS011;12324;48.146;11.502;2022-07-06T00:38:33;3.92;;;2.20;;
24173;SDS011;12324;48.146;11.502;2022-07-06T00:41:00;3.80;;;1.92;;
24173;SDS011;12324;48.146;11.502;2022-07-06T00:43:27;4.15;;;2.22;;
24173;SDS011;12324;48.146;11.502;2022-07-06T00:45:53;6.85;;;2.40;;
24173;SDS011;12324;48.146;11.502;2022-07-06T00:48:20;4.25;;;2.50;;
24173;SDS011;12324;48.146;11.502;2022-07-06T00:50:47;3.75;;;2.13;;
24173;SDS011;12324;48.146;11.502;2022-07-06T00:53:14;3.83;;;2.08;;
24173;SDS011;12324;48.146;11.502;2022-07-06T00:55:41;2.88;;;1.88;;
24173;SDS011;12324;48.146;11.502;2022-07-06T00:58:09;5.93;;;1.90;;
24173;SDS011;12324;48.146;11.502;2022-07-06T01:00:36;4.57;;;2.10;;
24173;SDS011;12324;48.146;11.502;2022-07-06T01:03:03;5.47;;;2.25;;
24173;SDS011;12324;48.146;11.502;2022-07-06T01:05:30;3.03;;;2.00;;
24173;SDS011;12324;48.146;11.502;2022-07-06T01:07:57;3.05;;;2.17;;
24173;SDS011;12324;48.146;11.502;2022-07-06T01:10:23;7.10;;;2.17;;
24173;SDS011;12324;48.146;11.502;2022-07-06T01:12:50;3.65;;;2.20;;
24173;SDS011;12324;48.146;11.502;2022-07-06T01:15:18;3.75;;;1.95;;
24173;SDS011;12324;48.146;11.502;2022-07-06T01:17:46;3.72;;;1.98;;
24173;SDS011;12324;48.146;11.502;2022-07-06T01:20:23;2.83;;;1.92;;
24173;SDS011;12324;48.146;11.502;2022-07-06T01:22:51;6.80;;;2.17;;
24173;SDS011;12324;48.146;11.502;2022-07-06T01:25:19;3.17;;;2.25;;
24173;SDS011;12324;48.146;11.502;2022-07-06T01:27:47;2.72;;;2.10;;
24173;SDS011;12324;48.146;11.502;2022-07-06T01:30:15;3.47;;;2.53;;
24173;SDS011;12324;48.146;11.502;2022-07-06T01:32:43;4.30;;;2.30;;
24173;SDS011;12324;48.146;11.502;2022-07-06T01:35:11;4.47;;;2.53;;
24173;SDS011;12324;48.146;11.502;2022-07-06T01:37:42;3.33;;;2.00;;
24173;SDS011;12324;48.146;11.502;2022-07-06T01:40:10;3.25;;;2.15;;
24173;SDS011;12324;48.146;11.502;2022-07-06T01:42:38;3.50;;;1.92;;
24173;SDS011;12324;48.146;11.502;2022-07-06T01:45:06;3.78;;;1.90;;
24173;SDS011;12324;48.146;11.502;2022-07-06T01:47:33;4.75;;;2.25;;
24173;SDS011;12324;48.146;11.502;2022-07-06T01:50:01;7.88;;;2.53;;
24173;SDS011;12324;48.146;11.502;2022-07-06T01:52:30;2.05;;;1.85;;
24173;SDS011;12324;48.146;11.502;2022-07-06T01:54:57;4.30;;;2.25;;
24173;SDS011;12324;48.146;11.502;2022-07-06T01:57:24;2.50;;;1.90;;
24173;SDS011;12324;48.146;11.502;2022-07-06T01:59:51;3.20;;;1.80;;
24173;SDS011;12324;48.146;11.502;2022-07-06T02:02:17;3.75;;;2.00;;
24173;SDS011;12324;48.146;11.502;2022-07-06T02:04:44;4.00;;;1.98;;
24173;SDS011;12324;48.146;11.502;2022-07-06T02:07:11;4.13;;;2.22;;
24173;SDS011;12324;48.146;11.502;2022-07-06T02:09:38;4.63;;;2.55;;
24173;SDS011;12324;48.146;11.502;2022-07-06T02:12:04;3.33;;;1.90;;
24173;SDS011;12324;48.146;11.502;2022-07-06T02:14:31;4.40;;;1.70;;
24173;SDS011;12324;48.146;11.502;2022-07-06T02:16:58;3.15;;;1.80;;
24173;SDS011;12324;48.146;11.502;2022-07-06T02:19:25;3.60;;;2.13;;
24173;SDS011;12324;48.146;11.502;2022-07-06T02:21:52;3.20;;;2.35;;
24173;SDS011;12324;48.146;11.502;2022-07-06T02:24:18;1.95;;;1.60;;
24173;SDS011;12324;48.146;11.502;2022-07-06T02:26:45;3.55;;;2.10;;
24173;SDS011;12324;48.146;11.502;2022-07-06T02:29:12;4.30;;;1.90;;
24173;SDS011;12324;48.146;11.502;2022-07-06T02:31:39;2.00;;;1.58;;
24173;SDS011;12324;48.146;11.502;2022-07-06T02:34:05;2.67;;;2.00;;
24173;SDS011;12324;48.146;11.502;2022-07-06T02:36:32;5.65;;;2.08;;
24173;SDS011;12324;48.146;11.502;2022-07-06T02:38:59;2.88;;;1.92;;
24173;SDS011;12324;48.146;11.502;2022-07-06T02:41:25;5.25;;;1.77;;
24173;SDS011;12324;48.146;11.502;2022-07-06T02:43:52;3.25;;;2.00;;
24173;SDS011;12324;48.146;11.502;2022-07-06T02:46:19;4.15;;;1.83;;
24173;SDS011;12324;48.146;11.502;2022-07-06T02:48:46;3.22;;;1.80;;
24173;SDS011;12324;48.146;11.502;2022-07-06T02:51:12;2.15;;;1.80;;
24173;SDS011;12324;48.146;11.502;2022-07-06T02:53:39;3.28;;;2.25;;
24173;SDS011;12324;48.146;11.502;2022-07-06T02:56:06;3.13;;;2.05;;
24173;SDS011;12324;48.146;11.502;2022-07-06T02:58:33;3.08;;;1.90;;
24173;SDS011;12324;48.146;11.502;2022-07-06T03:00:59;5.40;;;2.17;;
24173;SDS011;12324;48.146;11.502;2022-07-06T03:03:26;4.18;;;2.22;;
24173;SDS011;12324;48.146;11.502;2022-07-06T03:05:53;5.13;;;2.17;;
24173;SDS011;12324;48.146;11.502;2022-07-06T03:08:19;2.70;;;1.80;;
24173;SDS011;12324;48.146;11.502;2022-07-06T03:10:47;4.18;;;2.05;;
24173;SDS011;12324;48.146;11.502;2022-07-06T03:13:13;2.03;;;1.52;;
24173;SDS011;12324;48.146;11.502;2022-07-06T03:15:40;2.53;;;1.73;;
24173;SDS011;12324;48.146;11.502;2022-07-06T03:18:07;1.70;;;1.50;;
24173;SDS011;12324;48.146;11.502;2022-07-06T03:20:34;4.72;;;1.83;;
24173;SDS011;12324;48.146;11.502;2022-07-06T03:23:00;1.90;;;1.70;;
24173;SDS011;12324;48.146;11.502;2022-07-06T03:25:27;3.22;;;2.35;;
24173;SDS011;12324;48.146;11.502;2022-07-06T03:27:54;2.97;;;2.13;;
24173;SDS011;12324;48.146;11.502;2022-07-06T03:30:21;2.40;;;2.00;;
24173;SDS011;12324;48.146;11.502;2022-07-06T03:32:47;2.97;;;1.90;;
24173;SDS011;12324;48.146;11.502;2022-07-06T03:35:14;5.43;;;2.10;;
24173;SDS011;12324;48.146;11.502;2022-07-06T03:37:41;2.58;;;1.90;;
24173;SDS011;12324;48.146;11.502;2022-07-06T03:40:07;3.45;;;1.90;;
24173;SDS011;12324;48.146;11.502;2022-07-06T03:42:35;4.72;;;2.17;;
24173;SDS011;12324;48.146;11.502;2022-07-06T03:45:03;3.15;;;1.67;;
24173;SDS011;12324;48.146;11.502;2022-07-06T03:47:31;3.45;;;1.77;;
24173;SDS011;12324;48.146;11.502;2022-07-06T03:49:57;4.05;;;2.17;;
24173;SDS011;12324;48.146;11.502;2022-07-06T03:52:24;5.63;;;2.28;;
24173;SDS011;12324;48.146;11.502;2022-07-06T03:54:51;2.00;;;1.80;;
24173;SDS011;12324;48.146;11.502;2022-07-06T03:57:17;2.58;;;2.20;;
24173;SDS011;12324;48.146;11.502;2022-07-06T03:59:44;3.30;;;2.30;;
24173;SDS011;12324;48.146;11.502;2022-07-06T04:02:11;3.28;;;2.10;;
24173;SDS011;12324;48.146;11.502;2022-07-06T04:04:37;2.67;;;1.90;;
24173;SDS011;12324;48.146;11.502;2022-07-06T04:07:04;3.17;;;1.90;;
24173;SDS011;12324;48.146;11.502;2022-07-06T04:09:31;3.47;;;1.90;;
24173;SDS011;12324;48.146;11.502;2022-07-06T04:11:57;3.42;;;2.10;;
24173;SDS011;12324;48.146;11.502;2022-07-06T04:14:24;3.13;;;2.10;;
24173;SDS011;12324;48.146;11.502;2022-07-06T04:16:53;4.95;;;2.42;;
24173;SDS011;12324;48.146;11.502;2022-07-06T04:19:20;3.42;;;1.83;;
24173;SDS011;12324;48.146;11.502;2022-07-06T04:21:46;2.60;;;2.10;;
24173;SDS011;12324;48.146;11.502;2022-07-06T04:24:13;4.20;;;2.40;;
24173;SDS011;12324;48.146;11.502;2022-07-06T04:26:40;2.63;;;1.75;;
24173;SDS011;12324;48.146;11.502;2022-07-06T04:29:06;3.28;;;2.00;;
24173;SDS011;12324;48.146;11.502;2022-07-06T04:31:33;3.75;;;2.30;;
24173;SDS011;12324;48.146;11.502;2022-07-06T04:34:00;4.07;;;2.28;;
24173;SDS011;12324;48.146;11.502;2022-07-06T04:36:27;5.00;;;2.33;;
24173;SDS011;12324;48.146;11.502;2022-07-06T04:38:53;2.55;;;2.10;;
24173;SDS011;12324;48.146;11.502;2022-07-06T04:41:20;5.32;;;2.15;;
24173;SDS011;12324;48.146;11.502;2022-07-06T04:43:47;3.67;;;2.20;;
24173;SDS011;12324;48.146;11.502;2022-07-06T04:46:14;2.95;;;1.75;;
24173;SDS011;12324;48.146;11.502;2022-07-06T04:48:41;4.22;;;2.40;;
24173;SDS011;12324;48.146;11.502;2022-07-06T04:51:08;5.22;;;2.85;;
24173;SDS011;12324;48.146;11.502;2022-07-06T04:53:35;3.05;;;1.75;;
24173;SDS011;12324;48.146;11.502;2022-07-06T04:56:03;4.78;;;2.60;;
24173;SDS011;12324;48.146;11.502;2022-07-06T04:58:30;3.35;;;2.47;;
24173;SDS011;12324;48.146;11.502;2022-07-06T05:00:56;5.45;;;2.40;;
24173;SDS011;12324;48.146;11.502;2022-07-06T05:03:23;3.33;;;2.03;;
24173;SDS011;12324;48.146;11.502;2022-07-06T05:05:50;3.67;;;2.33;;
24173;SDS011;12324;48.146;11.502;2022-07-06T05:08:19;3.33;;;2.08;;
24173;SDS011;12324;48.146;11.502;2022-07-06T05:10:47;4.35;;;2.38;;
24173;SDS011;12324;48.146;11.502;2022-07-06T05:13:15;4.28;;;2.00;;
24173;SDS011;12324;48.146;11.502;2022-07-06T05:15:42;3.13;;;2.13;;
24173;SDS011;12324;48.146;11.502;2022-07-06T05:18:09;5.72;;;2.83;;
24173;SDS011;12324;48.146;11.502;2022-07-06T05:20:36;5.25;;;2.47;;
24173;SDS011;12324;48.146;11.502;2022-07-06T05:23:03;3.08;;;1.67;;
24173;SDS011;12324;48.146;11.502;2022-07-06T05:25:30;4.63;;;2.17;;
24173;SDS011;12324;48.146;11.502;2022-07-06T05:27:59;3.47;;;2.30;;
24173;SDS011;12324;48.146;11.502;2022-07-06T05:30:26;5.85;;;2.20;;
24173;SDS011;12324;48.146;11.502;2022-07-06T05:32:53;2.97;;;1.98;;
24173;SDS011;12324;48.146;11.502;2022-07-06T05:35:20;3.90;;;2.20;;
24173;SDS011;12324;48.146;11.502;2022-07-06T05:38:07;3.15;;;1.95;;
24173;SDS011;12324;48.146;11.502;2022-07-06T05:40:34;2.50;;;1.83;;
24173;SDS011;12324;48.146;11.502;2022-07-06T05:43:02;6.55;;;2.30;;
24173;SDS011;12324;48.146;11.502;2022-07-06T05:45:29;7.70;;;2.20;;
24173;SDS011;12324;48.146;11.502;2022-07-06T05:47:56;3.70;;;2.30;;
24173;SDS011;12324;48.146;11.502;2022-07-06T05:50:42;5.47;;;2.10;;
24173;SDS011;12324;48.146;11.502;2022-07-06T05:53:09;3.17;;;2.17;;
24173;SDS011;12324;48.146;11.502;2022-07-06T05:55:45;5.22;;;2.35;;
24173;SDS011;12324;48.146;11.502;2022-07-06T05:58:12;5.40;;;2.25;;
24173;SDS011;12324;48.146;11.502;2022-07-06T06:00:39;2.97;;;2.33;;
24173;SDS011;12324;48.146;11.502;2022-07-06T06:03:06;4.25;;;2.40;;
24173;SDS011;12324;48.146;11.502;2022-07-06T06:05:33;3.22;;;2.05;;
24173;SDS011;12324;48.146;11.502;2022-07-06T06:08:01;3.13;;;1.95;;
24173;SDS011;12324;48.146;11.502;2022-07-06T06:10:28;2.47;;;1.80;;
24173;SDS011;12324;48.146;11.502;2022-07-06T06:12:55;2.85;;;2.15;;
24173;SDS011;12324;48.146;11.502;2022-07-06T06:15:22;4.40;;;2.00;;
24173;SDS011;12324;48.146;11.502;2022-07-06T06:17:49;4.45;;;2.15;;
24173;SDS011;12324;48.146;11.502;2022-07-06T06:20:16;3.60;;;2.20;;
24173;SDS011;12324;48.146;11.502;2022-07-06T06:22:51;3.30;;;2.10;;
24173;SDS011;12324;48.146;11.502;2022-07-06T06:25:19;2.13;;;1.83;;
24173;SDS011;12324;48.146;11.502;2022-07-06T06:27:46;5.45;;;2.67;;
24173;SDS011;12324;48.146;11.502;2022-07-06T06:30:13;5.00;;;2.53;;
24173;SDS011;12324;48.146;11.502;2022-07-06T06:32:41;5.30;;;2.20;;
24173;SDS011;12324;48.146;11.502;2022-07-06T06:35:08;3.60;;;2.00;;
24173;SDS011;12324;48.146;11.502;2022-07-06T06:37:35;3.10;;;2.17;;
24173;SDS011;12324;48.146;11.502;2022-07-06T06:40:03;4.35;;;2.65;;
24173;SDS011;12324;48.146;11.502;2022-07-06T06:42:31;2.30;;;1.92;;
24173;SDS011;12324;48.146;11.502;2022-07-06T06:44:58;3.85;;;2.55;;
24173;SDS011;12324;48.146;11.502;2022-07-06T06:47:25;4.68;;;2.65;;
24173;SDS011;12324;48.146;11.502;2022-07-06T06:49:52;4.10;;;2.28;;
24173;SDS011;12324;48.146;11.502;2022-07-06T06:52:19;4.97;;;2.65;;
24173;SDS011;12324;48.146;11.502;2022-07-06T06:55:05;7.80;;;2.58;;
24173;SDS011;12324;48.146;11.502;2022-07-06T06:57:32;3.75;;;2.40;;
24173;SDS011;12324;48.146;11.502;2022-07-06T06:59:59;5.70;;;2.70;;
24173;SDS011;12324;48.146;11.502;2022-07-06T07:02:27;6.30;;;2.90;;
24173;SDS011;12324;48.146;11.502;2022-07-06T07:04:54;3.70;;;2.40;;
24173;SDS011;12324;48.146;11.502;2022-07-06T07:07:22;3.95;;;2.33;;
24173;SDS011;12324;48.146;11.502;2022-07-06T07:09:49;3.17;;;2.15;;
24173;SDS011;12324;48.146;11.502;2022-07-06T07:12:16;4.50;;;2.65;;
24173;SDS011;12324;48.146;11.502;2022-07-06T07:14:43;3.25;;;2.33;;
24173;SDS011;12324;48.146;11.502;2022-07-06T07:17:11;5.85;;;2.70;;
24173;SDS011;12324;48.146;11.502;2022-07-06T07:19:39;4.28;;;2.13;;
24173;SDS011;12324;48.146;11.502;2022-07-06T07:22:07;4.60;;;2.42;;
24173;SDS011;12324;48.146;11.502;2022-07-06T07:24:34;4.20;;;2.60;;
24173;SDS011;12324;48.146;11.502;2022-07-06T07:27:01;3.67;;;2.38;;
24173;SDS011;12324;48.146;11.502;2022-07-06T07:29:28;4.05;;;2.38;;
24173;SDS011;12324;48.146;11.502;2022-07-06T07:31:55;6.47;;;2.75;;
24173;SDS011;12324;48.146;11.502;2022-07-06T07:34:23;5.95;;;2.45;;
24173;SDS011;12324;48.146;11.502;2022-07-06T07:36:50;6.18;;;2.40;;
24173;SDS011;12324;48.146;11.502;2022-07-06T07:39:17;5.60;;;2.35;;
24173;SDS011;12324;48.146;11.502;2022-07-06T07:41:44;5.75;;;2.45;;
24173;SDS011;12324;48.146;11.502;2022-07-06T07:44:11;4.43;;;2.47;;
24173;SDS011;12324;48.146;11.502;2022-07-06T07:46:38;3.55;;;2.13;;
24173;SDS011;12324;48.146;11.502;2022-07-06T07:49:05;4.45;;;2.75;;
24173;SDS011;12324;48.146;11.502;2022-07-06T07:51:33;4.82;;;2.45;;
24173;SDS011;12324;48.146;11.502;2022-07-06T07:54:00;5.00;;;2.83;;
24173;SDS011;12324;48.146;11.502;2022-07-06T07:56:27;5.55;;;2.45;;
24173;SDS011;12324;48.146;11.502;2022-07-06T07:58:55;3.95;;;2.00;;
24173;SDS011;12324;48.146;11.502;2022-07-06T08:01:22;4.05;;;2.60;;
24173;SDS011;12324;48.146;11.502;2022-07-06T08:03:49;5.90;;;2.88;;
24173;SDS011;12324;48.146;11.502;2022-07-06T08:06:16;5.22;;;2.95;;
24173;SDS011;12324;48.146;11.502;2022-07-06T08:08:43;5.85;;;3.00;;
24173;SDS011;12324;48.146;11.502;2022-07-06T08:11:10;5.43;;;2.58;;
24173;SDS011;12324;48.146;11.502;2022-07-06T08:13:43;4.85;;;2.58;;
24173;SDS011;12324;48.146;11.502;2022-07-06T08:16:10;5.55;;;2.58;;
24173;SDS011;12324;48.146;11.502;2022-07-06T08:18:38;9.85;;;2.70;;
24173;SDS011;12324;48.146;11.502;2022-07-06T08:21:05;3.90;;;2.47;;
24173;SDS011;12324;48.146;11.502;2022-07-06T08:23:53;6.28;;;2.80;;
24173;SDS011;12324;48.146;11.502;2022-07-06T08:26:20;5.00;;;2.60;;
24173;SDS011;12324;48.146;11.502;2022-07-06T08:28:48;6.07;;;2.92;;
24173;SDS011;12324;48.146;11.502;2022-07-06T08:31:15;6.43;;;3.00;;
24173;SDS011;12324;48.146;11.502;2022-07-06T08:34:02;6.78;;;2.72;;
24173;SDS011;12324;48.146;11.502;2022-07-06T08:36:30;3.92;;;2.35;;
24173;SDS011;12324;48.146;11.502;2022-07-06T08:38:57;6.95;;;2.78;;
24173;SDS011;12324;48.146;11.502;2022-07-06T08:41:25;4.00;;;2.63;;
24173;SDS011;12324;48.146;11.502;2022-07-06T08:43:52;7.32;;;3.42;;
24173;SDS011;12324;48.146;11.502;2022-07-06T08:46:20;5.82;;;2.97;;
24173;SDS011;12324;48.146;11.502;2022-07-06T08:48:47;6.07;;;2.88;;
24173;SDS011;12324;48.146;11.502;2022-07-06T08:51:15;5.82;;;2.95;;
24173;SDS011;12324;48.146;11.502;2022-07-06T08:53:43;5.85;;;2.90;;
24173;SDS011;12324;48.146;11.502;2022-07-06T08:56:10;5.97;;;3.35;;
24173;SDS011;12324;48.146;11.502;2022-07-06T08:58:37;4.22;;;2.78;;
24173;SDS011;12324;48.146;11.502;2022-07-06T09:01:10;6.60;;;3.13;;
24173;SDS011;12324;48.146;11.502;2022-07-06T09:03:39;5.85;;;2.92;;
24173;SDS011;12324;48.146;11.502;2022-07-06T09:06:06;8.00;;;3.22;;
24173;SDS011;12324;48.146;11.502;2022-07-06T09:08:34;6.15;;;3.13;;
24173;SDS011;12324;48.146;11.502;2022-07-06T09:11:04;5.07;;;2.72;;
24173;SDS011;12324;48.146;11.502;2022-07-06T09:13:31;6.30;;;3.20;;
24173;SDS011;12324;48.146;11.502;2022-07-06T09:16:11;5.55;;;3.00;;
24173;SDS011;12324;48.146;11.502;2022-07-06T09:18:58;6.28;;;3.13;;
24173;SDS011;12324;48.146;11.502;2022-07-06T09:21:26;5.40;;;3.10;;
24173;SDS011;12324;48.146;11.502;2022-07-06T09:23:54;8.85;;;3.10;;
24173;SDS011;12324;48.146;11.502;2022-07-06T09:26:22;5.40;;;2.67;;
24173;SDS011;12324;48.146;11.502;2022-07-06T09:28:49;3.55;;;2.58;;
24173;SDS011;12324;48.146;11.502;2022-07-06T09:31:17;7.40;;;2.90;;
24173;SDS011;12324;48.146;11.502;2022-07-06T09:33:57;4.05;;;2.53;;
24173;SDS011;12324;48.146;11.502;2022-07-06T09:39:26;3.53;;;2.20;;
24173;SDS011;12324;48.146;11.502;2022-07-06T09:41:55;7.00;;;3.88;;
24173;SDS011;12324;48.146;11.502;2022-07-06T09:44:24;4.53;;;2.72;;
24173;SDS011;12324;48.146;11.502;2022-07-06T09:46:52;5.43;;;2.92;;
24173;SDS011;12324;48.146;11.502;2022-07-06T09:49:20;6.88;;;2.72;;
24173;SDS011;12324;48.146;11.502;2022-07-06T09:51:48;6.50;;;2.95;;
24173;SDS011;12324;48.146;11.502;2022-07-06T09:54:16;6.05;;;2.70;;
24173;SDS011;12324;48.146;11.502;2022-07-06T09:56:44;5.30;;;3.00;;
24173;SDS011;12324;48.146;11.502;2022-07-06T09:59:14;3.58;;;2.65;;
24173;SDS011;12324;48.146;11.502;2022-07-06T10:01:42;4.97;;;2.92;;
24173;SDS011;12324;48.146;11.502;2022-07-06T10:04:11;4.45;;;2.78;;
24173;SDS011;12324;48.146;11.502;2022-07-06T10:06:44;5.93;;;3.05;;
24173;SDS011;12324;48.146;11.502;2022-07-06T10:09:12;3.78;;;2.67;;
24173;SDS011;12324;48.146;11.502;2022-07-06T10:11:40;7.28;;;3.03;;
24173;SDS011;12324;48.146;11.502;2022-07-06T10:14:08;8.63;;;3.05;;
24173;SDS011;12324;48.146;11.502;2022-07-06T10:16:36;5.90;;;3.00;;
24173;SDS011;12324;48.146;11.502;2022-07-06T10:19:04;6.28;;;2.50;;
24173;SDS011;12324;48.146;11.502;2022-07-06T10:21:31;5.40;;;2.50;;
24173;SDS011;12324;48.146;11.502;2022-07-06T10:23:59;4.38;;;2.58;;
24173;SDS011;12324;48.146;11.502;2022-07-06T10:26:26;3.83;;;2.60;;
24173;SDS011;12324;48.146;11.502;2022-07-06T10:28:53;3.78;;;2.42;;
24173;SDS011;12324;48.146;11.502;2022-07-06T10:31:21;4.72;;;2.80;;
24173;SDS011;12324;48.146;11.502;2022-07-06T10:33:50;3.80;;;2.42;;
24173;SDS011;12324;48.146;11.502;2022-07-06T10:36:18;4.63;;;2.88;;
24173;SDS011;12324;48.146;11.502;2022-07-06T10:38:51;5.05;;;3.22;;
24173;SDS011;12324;48.146;11.502;2022-07-06T10:41:29;2.65;;;2.40;;
24173;SDS011;12324;48.146;11.502;2022-07-06T10:43:56;5.40;;;2.53;;
24173;SDS011;12324;48.146;11.502;2022-07-06T10:46:27;4.93;;;2.35;;
24173;SDS011;12324;48.146;11.502;2022-07-06T10:48:55;3.85;;;2.45;;
24173;SDS011;12324;48.146;11.502;2022-07-06T10:51:27;3.58;;;2.33;;
24173;SDS011;12324;48.146;11.502;2022-07-06T10:53:55;6.90;;;3.00;;
24173;SDS011;12324;48.146;11.502;2022-07-06T10:56:32;4.68;;;2.60;;
24173;SDS011;12324;48.146;11.502;2022-07-06T11:01:38;6.03;;;2.72;;
24173;SDS011;12324;48.146;11.502;2022-07-06T11:04:12;9.02;;;3.20;;
24173;SDS011;12324;48.146;11.502;2022-07-06T11:06:41;3.42;;;2.28;;
24173;SDS011;12324;48.146;11.502;2022-07-06T11:09:12;4.72;;;2.50;;
24173;SDS011;12324;48.146;11.502;2022-07-06T11:11:42;3.38;;;2.50;;
24173;SDS011;12324;48.146;11.502;2022-07-06T11:14:11;3.67;;;2.40;;
24173;SDS011;12324;48.146;11.502;2022-07-06T11:19:16;7.07;;;2.47;;
24173;SDS011;12324;48.146;11.502;2022-07-06T11:24:14;5.32;;;2.92;;
24173;SDS011;12324;48.146;11.502;2022-07-06T11:26:43;6.38;;;2.92;;
24173;SDS011;12324;48.146;11.502;2022-07-06T11:29:10;4.82;;;2.50;;
24173;SDS011;12324;48.146;11.502;2022-07-06T11:31:39;4.55;;;2.63;;
24173;SDS011;12324;48.146;11.502;2022-07-06T11:34:07;4.82;;;2.72;;
24173;SDS011;12324;48.146;11.502;2022-07-06T11:36:34;4.55;;;2.75;;
24173;SDS011;12324;48.146;11.502;2022-07-06T11:39:10;2.70;;;2.10;;
24173;SDS011;12324;48.146;11.502;2022-07-06T11:41:38;4.97;;;2.25;;
24173;SDS011;12324;48.146;11.502;2022-07-06T11:44:05;5.55;;;2.42;;
24173;SDS011;12324;48.146;11.502;2022-07-06T11:46:32;5.18;;;2.47;;
24173;SDS011;12324;48.146;11.502;2022-07-06T11:51:31;3.50;;;2.30;;
24173;SDS011;12324;48.146;11.502;2022-07-06T11:53:59;4.63;;;2.50;;
24173;SDS011;12324;48.146;11.502;2022-07-06T11:56:27;5.38;;;2.50;;
24173;SDS011;12324;48.146;11.502;2022-07-06T11:58:55;3.42;;;2.33;;
24173;SDS011;12324;48.146;11.502;2022-07-06T12:01:24;3.40;;;2.45;;
24173;SDS011;12324;48.146;11.502;2022-07-06T12:03:53;5.47;;;2.72;;
24173;SDS011;12324;48.146;11.502;2022-07-06T12:06:21;5.35;;;2.40;;
24173;SDS011;12324;48.146;11.502;2022-07-06T12:08:50;2.85;;;2.03;;
24173;SDS011;12324;48.146;11.502;2022-07-06T12:11:23;4.03;;;2.30;;
24173;SDS011;12324;48.146;11.502;2022-07-06T12:13:50;3.17;;;2.15;;
24173;SDS011;12324;48.146;11.502;2022-07-06T12:16:18;3.33;;;1.95;;
24173;SDS011;12324;48.146;11.502;2022-07-06T12:18:47;4.53;;;2.22;;
24173;SDS011;12324;48.146;11.502;2022-07-06T12:21:15;3.58;;;2.38;;
24173;SDS011;12324;48.146;11.502;2022-07-06T12:23:46;5.43;;;2.28;;
24173;SDS011;12324;48.146;11.502;2022-07-06T12:26:15;4.43;;;2.33;;
24173;SDS011;12324;48.146;11.502;2022-07-06T12:28:43;10.93;;;2.70;;
24173;SDS011;12324;48.146;11.502;2022-07-06T12:31:10;4.45;;;2.30;;
24173;SDS011;12324;48.146;11.502;2022-07-06T12:33:38;6.22;;;2.22;;
24173;SDS011;12324;48.146;11.502;2022-07-06T12:36:09;5.68;;;2.17;;
24173;SDS011;12324;48.146;11.502;2022-07-06T12:38:36;4.38;;;2.50;;
24173;SDS011;12324;48.146;11.502;2022-07-06T12:41:10;4.50;;;2.00;;
24173;SDS011;12324;48.146;11.502;2022-07-06T12:43:38;3.60;;;2.22;;
24173;SDS011;12324;48.146;11.502;2022-07-06T12:48:52;4.40;;;2.08;;
24173;SDS011;12324;48.146;11.502;2022-07-06T12:51:20;3.50;;;1.88;;
24173;SDS011;12324;48.146;11.502;2022-07-06T12:53:47;4.53;;;2.00;;
24173;SDS011;12324;48.146;11.502;2022-07-06T12:56:14;3.72;;;2.22;;
24173;SDS011;12324;48.146;11.502;2022-07-06T12:58:58;2.35;;;2.00;;
24173;SDS011;12324;48.146;11.502;2022-07-06T13:01:26;10.95;;;2.05;;
24173;SDS011;12324;48.146;11.502;2022-07-06T13:03:53;7.35;;;2.58;;
24173;SDS011;12324;48.146;11.502;2022-07-06T13:06:31;3.35;;;2.00;;
24173;SDS011;12324;48.146;11.502;2022-07-06T13:09:00;4.07;;;2.25;;
24173;SDS011;12324;48.146;11.502;2022-07-06T13:11:27;4.22;;;2.20;;
24173;SDS011;12324;48.146;11.502;2022-07-06T13:13:53;3.78;;;2.33;;
24173;SDS011;12324;48.146;11.502;2022-07-06T13:16:20;2.55;;;1.92;;
24173;SDS011;12324;48.146;11.502;2022-07-06T13:18:50;2.90;;;2.03;;
24173;SDS011;12324;48.146;11.502;2022-07-06T13:21:17;2.88;;;2.05;;
24173;SDS011;12324;48.146;11.502;2022-07-06T13:23:43;3.25;;;2.50;;
24173;SDS011;12324;48.146;11.502;2022-07-06T13:26:10;4.05;;;2.00;;
24173;SDS011;12324;48.146;11.502;2022-07-06T13:28:37;3.05;;;2.03;;
24173;SDS011;12324;48.146;11.502;2022-07-06T13:31:04;2.78;;;2.28;;
24173;SDS011;12324;48.146;11.502;2022-07-06T13:33:37;5.10;;;2.42;;
24173;SDS011;12324;48.146;11.502;2022-07-06T13:36:04;4.28;;;2.22;;
24173;SDS011;12324;48.146;11.502;2022-07-06T13:38:31;3.85;;;2.10;;
24173;SDS011;12324;48.146;11.502;2022-07-06T13:40:58;2.85;;;2.20;;
24173;SDS011;12324;48.146;11.502;2022-07-06T13:43:25;2.83;;;2.03;;
24173;SDS011;12324;48.146;11.502;2022-07-06T13:46:03;3.97;;;2.17;;
24173;SDS011;12324;48.146;11.502;2022-07-06T13:48:31;3.33;;;2.08;;
24173;SDS011;12324;48.146;11.502;2022-07-06T13:50:58;3.33;;;1.92;;
24173;SDS011;12324;48.146;11.502;2022-07-06T13:53:25;4.55;;;2.10;;
24173;SDS011;12324;48.146;11.502;2022-07-06T13:55:53;3.15;;;2.25;;
24173;SDS011;12324;48.146;11.502;2022-07-06T13:58:21;5.35;;;2.13;;
24173;SDS011;12324;48.146;11.502;2022-07-06T14:00:47;1.98;;;1.67;;
24173;SDS011;12324;48.146;11.502;2022-07-06T14:03:14;2.80;;;1.77;;
24173;SDS011;12324;48.146;11.502;2022-07-06T14:05:41;3.75;;;2.08;;
24173;SDS011;12324;48.146;11.502;2022-07-06T14:08:08;2.40;;;1.90;;
24173;SDS011;12324;48.146;11.502;2022-07-06T14:10:35;4.82;;;2.08;;
24173;SDS011;12324;48.146;11.502;2022-07-06T14:13:01;3.17;;;1.80;;
24173;SDS011;12324;48.146;11.502;2022-07-06T14:15:28;2.95;;;1.80;;
24173;SDS011;12324;48.146;11.502;2022-07-06T14:17:55;2.20;;;1.63;;
24173;SDS011;12324;48.146;11.502;2022-07-06T14:20:22;4.95;;;2.10;;
24173;SDS011;12324;48.146;11.502;2022-07-06T14:22:49;2.83;;;1.73;;
24173;SDS011;12324;48.146;11.502;2022-07-06T14:25:15;5.43;;;2.25;;
24173;SDS011;12324;48.146;11.502;2022-07-06T14:27:42;2.22;;;2.03;;
24173;SDS011;12324;48.146;11.502;2022-07-06T14:30:09;3.72;;;2.05;;
24173;SDS011;12324;48.146;11.502;2022-07-06T14:32:36;2.00;;;1.67;;
24173;SDS011;12324;48.146;11.502;2022-07-06T14:35:03;2.80;;;2.20;;
24173;SDS011;12324;48.146;11.502;2022-07-06T14:37:30;9.18;;;2.70;;
24173;SDS011;12324;48.146;11.502;2022-07-06T14:39:57;5.82;;;2.00;;
24173;SDS011;12324;48.146;11.502;2022-07-06T14:42:23;3.05;;;2.00;;
24173;SDS011;12324;48.146;11.502;2022-07-06T14:44:50;2.85;;;1.90;;
24173;SDS011;12324;48.146;11.502;2022-07-06T14:47:17;3.17;;;1.98;;
24173;SDS011;12324;48.146;11.502;2022-07-06T14:49:44;3.65;;;2.25;;
24173;SDS011;12324;48.146;11.502;2022-07-06T14:52:10;2.08;;;1.83;;
24173;SDS011;12324;48.146;11.502;2022-07-06T14:54:37;2.67;;;1.85;;